createdAt,value
2018-03-28T00:00:20.333Z,2.52
2018-03-28T00:01:20.318Z,2.41
2018-03-28T00:02:20.308Z,2.54
2018-03-28T00:03:20.286Z,2.48
2018-03-28T00:04:20.440Z,2.42
2018-03-28T00:05:20.263Z,2.41
2018-03-28T00:06:20.251Z,2.46
2018-03-28T00:07:20.230Z,2.41
2018-03-28T00:08:20.220Z,2.39
2018-03-28T00:09:20.209Z,2.41
2018-03-28T00:10:20.186Z,2.41
2018-03-28T00:11:20.172Z,2.38
2018-03-28T00:12:19.908Z,2.39
2018-03-28T00:13:20.148Z,2.39
2018-03-28T00:14:19.896Z,2.45
2018-03-28T00:15:20.116Z,2.41
2018-03-28T00:16:20.104Z,2.34
2018-03-28T00:17:20.113Z,2.38
2018-03-28T00:18:19.821Z,2.39
2018-03-28T00:19:19.552Z,2.45
2018-03-28T00:20:20.046Z,2.39
2018-03-28T00:21:20.028Z,2.46
2018-03-28T00:22:20.015Z,2.39
2018-03-28T00:23:20.003Z,2.41
2018-03-28T00:24:19.993Z,2.53
2018-03-28T00:25:19.770Z,2.52
2018-03-28T00:26:19.967Z,2.48
2018-03-28T00:27:19.696Z,2.48
2018-03-28T00:28:19.685Z,2.36
2018-03-28T00:29:19.930Z,2.41
2018-03-28T00:30:19.912Z,2.38
2018-03-28T00:31:19.886Z,2.53
2018-03-28T00:32:19.872Z,2.43
2018-03-28T00:33:19.603Z,2.42
2018-03-28T00:34:19.847Z,2.48
2018-03-28T00:35:19.830Z,2.53
2018-03-28T00:36:19.819Z,2.38
2018-03-28T00:37:19.800Z,2.39
2018-03-28T00:38:19.786Z,2.38
2018-03-28T00:39:19.771Z,2.41
2018-03-28T00:40:19.767Z,2.43
2018-03-28T00:41:19.749Z,2.36
2018-03-28T00:42:19.733Z,2.35
2018-03-28T00:43:19.210Z,2.31
2018-03-28T00:44:19.701Z,2.34
2018-03-28T00:45:19.691Z,2.34
2018-03-28T00:46:19.673Z,2.31
2018-03-28T00:47:19.663Z,2.24
2018-03-28T00:48:19.642Z,2.27
2018-03-28T00:49:19.633Z,2.24
2018-03-28T00:50:19.361Z,2.27
2018-03-28T00:51:19.599Z,2.23
2018-03-28T00:52:19.594Z,2.17
2018-03-28T00:53:19.573Z,2.28
2018-03-28T00:54:19.608Z,2.18
2018-03-28T00:55:19.542Z,2.18
2018-03-28T00:56:19.660Z,2.21
2018-03-28T00:57:19.513Z,2.21
2018-03-28T00:58:19.640Z,2.16
2018-03-28T00:59:19.483Z,2.25
2018-03-28T01:00:19.469Z,2.25
2018-03-28T01:01:19.457Z,2.28
2018-03-28T01:02:19.448Z,2.21
2018-03-28T01:03:19.426Z,2.25
2018-03-28T01:04:19.160Z,2.24
2018-03-28T01:05:19.406Z,2.24
2018-03-28T01:06:19.130Z,2.23
2018-03-28T01:07:19.369Z,2.2
2018-03-28T01:08:19.109Z,2.16
2018-03-28T01:09:19.346Z,2.31
2018-03-28T01:10:19.327Z,2.24
2018-03-28T01:11:19.327Z,2.31
2018-03-28T01:12:19.043Z,2.28
2018-03-28T01:13:19.028Z,2.17
2018-03-28T01:14:19.526Z,2.27
2018-03-28T01:15:19.001Z,2.24
2018-03-28T01:16:18.733Z,2.24
2018-03-28T01:17:18.970Z,2.3
2018-03-28T01:18:18.956Z,2.25
2018-03-28T01:19:19.195Z,2.31
2018-03-28T01:20:18.932Z,2.25
2018-03-28T01:21:19.169Z,2.39
2018-03-28T01:22:18.899Z,2.38
2018-03-28T01:23:19.139Z,2.39
2018-03-28T01:24:19.129Z,2.48
2018-03-28T01:25:18.855Z,2.43
2018-03-28T01:26:19.095Z,2.49
2018-03-28T01:27:19.078Z,2.38
2018-03-28T01:28:19.068Z,2.52
2018-03-28T01:29:19.054Z,2.49
2018-03-28T01:30:19.041Z,2.53
2018-03-28T01:31:19.033Z,2.56
2018-03-28T01:32:19.020Z,2.49
2018-03-28T01:33:18.995Z,2.57
2018-03-28T01:34:18.993Z,2.57
2018-03-28T01:35:18.711Z,2.53
2018-03-28T01:36:18.950Z,2.53
2018-03-28T01:37:18.935Z,2.57
2018-03-28T01:38:18.921Z,2.59
2018-03-28T01:39:18.656Z,2.53
2018-03-28T01:40:18.893Z,2.56
2018-03-28T01:41:18.881Z,2.56
2018-03-28T01:42:18.359Z,2.53
2018-03-28T01:43:18.857Z,2.56
2018-03-28T01:44:18.840Z,2.6
2018-03-28T01:45:19.073Z,2.59
2018-03-28T01:46:18.820Z,2.64
2018-03-28T01:47:18.793Z,2.59
2018-03-28T01:48:18.794Z,2.64
2018-03-28T01:49:18.763Z,2.69
2018-03-28T01:50:18.843Z,2.72
2018-03-28T01:51:18.747Z,2.69
2018-03-28T01:52:18.474Z,2.71
2018-03-28T01:53:18.456Z,2.67
2018-03-28T01:54:18.697Z,2.74
2018-03-28T01:55:18.425Z,2.69
2018-03-28T01:56:18.675Z,2.69
2018-03-28T01:57:18.656Z,2.67
2018-03-28T01:58:18.384Z,2.72
2018-03-28T01:59:18.622Z,2.81
2018-03-28T02:00:18.608Z,2.82
2018-03-28T02:01:18.594Z,2.82
2018-03-28T02:02:18.579Z,2.82
2018-03-28T02:03:18.313Z,2.74
2018-03-28T02:04:18.553Z,2.85
2018-03-28T02:05:18.536Z,2.95
2018-03-28T02:06:18.522Z,2.85
2018-03-28T02:07:18.256Z,2.96
2018-03-28T02:08:18.498Z,2.87
2018-03-28T02:09:18.480Z,2.95
2018-03-28T02:10:18.468Z,2.87
2018-03-28T02:11:18.199Z,2.93
2018-03-28T02:12:18.184Z,2.96
2018-03-28T02:13:18.427Z,2.95
2018-03-28T02:14:18.409Z,2.92
2018-03-28T02:15:18.400Z,2.93
2018-03-28T02:16:18.632Z,2.96
2018-03-28T02:17:18.368Z,2.95
2018-03-28T02:18:18.103Z,2.99
2018-03-28T02:19:18.341Z,2.99
2018-03-28T02:20:18.326Z,3
2018-03-28T02:21:18.313Z,3.03
2018-03-28T02:22:18.303Z,2.95
2018-03-28T02:23:18.032Z,3
2018-03-28T02:24:18.018Z,3.03
2018-03-28T02:25:17.750Z,3.05
2018-03-28T02:26:18.244Z,3.08
2018-03-28T02:27:18.229Z,3.03
2018-03-28T02:28:17.961Z,3.03
2018-03-28T02:29:18.200Z,3.05
2018-03-28T02:30:17.683Z,3.14
2018-03-28T02:31:18.175Z,3.13
2018-03-28T02:32:18.159Z,3.14
2018-03-28T02:33:18.157Z,3.05
2018-03-28T02:34:17.890Z,3.06
2018-03-28T02:35:18.120Z,3.06
2018-03-28T02:36:18.112Z,3.03
2018-03-28T02:37:18.105Z,3.06
2018-03-28T02:38:17.829Z,3.05
2018-03-28T02:39:18.068Z,3.24
2018-03-28T02:40:18.063Z,3.26
2018-03-28T02:41:18.050Z,3.23
2018-03-28T02:42:17.514Z,3.2
2018-03-28T02:43:18.013Z,3.24
2018-03-28T02:44:17.486Z,3.32
2018-03-28T02:45:17.987Z,3.32
2018-03-28T02:46:17.972Z,3.23
2018-03-28T02:47:17.953Z,3.28
2018-03-28T02:48:17.939Z,3.31
2018-03-28T02:49:17.925Z,3.33
2018-03-28T02:50:17.403Z,3.33
2018-03-28T02:51:17.900Z,3.26
2018-03-28T02:52:17.887Z,3.29
2018-03-28T02:53:17.873Z,3.35
2018-03-28T02:54:17.347Z,3.26
2018-03-28T02:55:17.850Z,3.26
2018-03-28T02:56:17.575Z,3.4
2018-03-28T02:57:17.811Z,3.31
2018-03-28T02:58:17.808Z,3.26
2018-03-28T02:59:17.534Z,3.26
2018-03-28T03:00:17.524Z,3.36
2018-03-28T03:01:17.770Z,3.4
2018-03-28T03:02:17.753Z,3.36
2018-03-28T03:03:17.729Z,3.32
2018-03-28T03:04:17.721Z,3.26
2018-03-28T03:05:17.706Z,3.23
2018-03-28T03:06:17.689Z,3.29
2018-03-28T03:07:17.683Z,3.33
2018-03-28T03:08:17.668Z,3.33
2018-03-28T03:09:17.656Z,3.36
2018-03-28T03:10:17.391Z,3.43
2018-03-28T03:11:17.618Z,3.28
2018-03-28T03:12:17.603Z,3.4
2018-03-28T03:13:17.590Z,3.43
2018-03-28T03:14:17.576Z,3.45
2018-03-28T03:15:17.573Z,3.45
2018-03-28T03:16:17.549Z,3.43
2018-03-28T03:17:17.542Z,3.39
2018-03-28T03:18:17.525Z,3.29
2018-03-28T03:19:17.512Z,3.39
2018-03-28T03:20:17.495Z,3.4
2018-03-28T03:21:17.482Z,3.42
2018-03-28T03:22:17.473Z,3.33
2018-03-28T03:23:17.454Z,3.43
2018-03-28T03:24:17.444Z,3.5
2018-03-28T03:25:17.425Z,3.55
2018-03-28T03:26:17.417Z,3.48
2018-03-28T03:27:17.400Z,3.54
2018-03-28T03:28:17.394Z,3.54
2018-03-28T03:29:17.371Z,3.47
2018-03-28T03:30:17.370Z,3.45
2018-03-28T03:31:17.096Z,3.5
2018-03-28T03:32:17.458Z,3.45
2018-03-28T03:33:17.316Z,3.35
2018-03-28T03:34:17.303Z,3.33
2018-03-28T03:35:17.039Z,3.5
2018-03-28T03:36:17.281Z,3.51
2018-03-28T03:37:16.757Z,3.48
2018-03-28T03:38:17.259Z,3.48
2018-03-28T03:39:17.235Z,3.54
2018-03-28T03:40:16.968Z,3.45
2018-03-28T03:41:17.211Z,3.51
2018-03-28T03:42:17.198Z,3.33
2018-03-28T03:43:16.943Z,3.35
2018-03-28T03:44:16.914Z,3.43
2018-03-28T03:45:16.900Z,3.5
2018-03-28T03:46:17.141Z,3.48
2018-03-28T03:47:17.126Z,3.51
2018-03-28T03:48:17.112Z,3.39
2018-03-28T03:49:16.851Z,3.45
2018-03-28T03:50:17.083Z,3.48
2018-03-28T03:51:17.122Z,3.45
2018-03-28T03:52:17.063Z,3.5
2018-03-28T03:53:17.047Z,3.51
2018-03-28T03:54:17.061Z,3.57
2018-03-28T03:55:17.023Z,3.51
2018-03-28T03:56:17.012Z,3.57
2018-03-28T03:57:16.992Z,3.58
2018-03-28T03:58:16.978Z,3.5
2018-03-28T03:59:16.964Z,3.54
2018-03-28T04:00:16.702Z,3.57
2018-03-28T04:01:16.939Z,3.5
2018-03-28T04:02:16.921Z,3.6
2018-03-28T04:03:16.909Z,3.58
2018-03-28T04:04:16.649Z,3.5
2018-03-28T04:05:16.628Z,3.54
2018-03-28T04:06:16.872Z,3.5
2018-03-28T04:07:16.855Z,3.51
2018-03-28T04:08:16.841Z,3.43
2018-03-28T04:09:16.830Z,3.5
2018-03-28T04:10:16.824Z,3.51
2018-03-28T04:11:16.547Z,3.47
2018-03-28T04:12:16.785Z,3.48
2018-03-28T04:13:16.780Z,3.65
2018-03-28T04:14:16.254Z,3.54
2018-03-28T04:15:16.754Z,3.51
2018-03-28T04:16:16.737Z,3.65
2018-03-28T04:17:16.723Z,3.62
2018-03-28T04:18:16.706Z,3.57
2018-03-28T04:19:16.445Z,3.61
2018-03-28T04:20:16.678Z,3.61
2018-03-28T04:21:16.667Z,3.7
2018-03-28T04:22:16.146Z,3.65
2018-03-28T04:23:16.642Z,3.68
2018-03-28T04:24:16.625Z,3.68
2018-03-28T04:25:16.612Z,3.68
2018-03-28T04:26:16.601Z,3.65
2018-03-28T04:27:16.585Z,3.66
2018-03-28T04:28:16.569Z,3.68
2018-03-28T04:29:16.304Z,3.76
2018-03-28T04:30:16.294Z,3.68
2018-03-28T04:31:16.276Z,3.75
2018-03-28T04:32:16.523Z,3.73
2018-03-28T04:33:16.513Z,3.79
2018-03-28T04:34:16.488Z,3.76
2018-03-28T04:35:16.477Z,3.8
2018-03-28T04:36:16.464Z,3.73
2018-03-28T04:37:16.453Z,3.73
2018-03-28T04:38:16.433Z,3.75
2018-03-28T04:39:15.914Z,3.69
2018-03-28T04:40:16.409Z,3.68
2018-03-28T04:41:16.394Z,3.73
2018-03-28T04:42:16.391Z,3.69
2018-03-28T04:43:16.368Z,3.78
2018-03-28T04:44:16.354Z,3.72
2018-03-28T04:45:16.347Z,3.76
2018-03-28T04:46:16.079Z,3.72
2018-03-28T04:47:16.064Z,3.7
2018-03-28T04:48:16.304Z,3.72
2018-03-28T04:49:16.286Z,3.75
2018-03-28T04:50:16.277Z,3.66
2018-03-28T04:51:16.013Z,3.69
2018-03-28T04:52:16.244Z,3.61
2018-03-28T04:53:16.243Z,3.6
2018-03-28T04:54:16.223Z,3.52
2018-03-28T04:55:16.205Z,3.54
2018-03-28T04:56:16.191Z,3.55
2018-03-28T04:57:15.935Z,3.5
2018-03-28T04:58:16.167Z,3.6
2018-03-28T04:59:16.156Z,3.58
2018-03-28T05:00:16.144Z,3.57
2018-03-28T05:01:16.136Z,3.48
2018-03-28T05:02:16.119Z,3.52
2018-03-28T05:03:16.110Z,3.51
2018-03-28T05:04:16.031Z,3.51
2018-03-28T05:05:16.075Z,3.52
2018-03-28T05:06:16.062Z,3.57
2018-03-28T05:07:15.793Z,3.5
2018-03-28T05:08:15.783Z,3.58
2018-03-28T05:09:15.765Z,3.5
2018-03-28T05:10:16.017Z,3.52
2018-03-28T05:11:15.990Z,3.66
2018-03-28T05:12:15.978Z,3.6
2018-03-28T05:13:15.710Z,3.62
2018-03-28T05:14:15.954Z,3.62
2018-03-28T05:15:15.941Z,3.7
2018-03-28T05:16:15.676Z,3.69
2018-03-28T05:17:15.910Z,3.68
2018-03-28T05:18:15.664Z,3.69
2018-03-28T05:19:15.885Z,3.62
2018-03-28T05:20:15.867Z,3.76
2018-03-28T05:21:15.602Z,3.66
2018-03-28T05:22:15.600Z,3.65
2018-03-28T05:23:16.076Z,3.61
2018-03-28T05:24:15.811Z,3.79
2018-03-28T05:25:15.799Z,3.61
2018-03-28T05:26:15.785Z,3.66
2018-03-28T05:27:15.772Z,3.66
2018-03-28T05:28:15.810Z,3.68
2018-03-28T05:29:15.750Z,3.68
2018-03-28T05:30:15.501Z,3.65
2018-03-28T05:31:15.775Z,3.58
2018-03-28T05:32:15.708Z,3.61
2018-03-28T05:33:15.706Z,3.5
2018-03-28T05:34:15.426Z,3.57
2018-03-28T05:35:15.426Z,3.47
2018-03-28T05:36:15.653Z,3.43
2018-03-28T05:37:15.643Z,3.51
2018-03-28T05:38:15.629Z,3.48
2018-03-28T05:39:15.362Z,3.42
2018-03-28T05:40:15.599Z,3.48
2018-03-28T05:41:15.596Z,3.52
2018-03-28T05:42:15.570Z,3.45
2018-03-28T05:43:15.606Z,3.5
2018-03-28T05:44:15.570Z,3.55
2018-03-28T05:45:15.547Z,3.54
2018-03-28T05:46:15.265Z,3.51
2018-03-28T05:47:15.501Z,3.57
2018-03-28T05:48:15.494Z,3.61
2018-03-28T05:49:15.474Z,3.54
2018-03-28T05:50:15.474Z,3.55
2018-03-28T05:51:15.455Z,3.48
2018-03-28T05:52:15.458Z,3.42
2018-03-28T05:53:14.913Z,3.39
2018-03-28T05:54:15.673Z,3.48
2018-03-28T05:55:15.392Z,3.35
2018-03-28T05:56:15.377Z,3.4
2018-03-28T05:57:15.112Z,3.35
2018-03-28T05:58:15.105Z,3.36
2018-03-28T05:59:15.343Z,3.43
2018-03-28T06:00:15.325Z,3.29
2018-03-28T06:01:15.316Z,3.26
2018-03-28T06:02:15.308Z,3.21
2018-03-28T06:03:15.284Z,3.23
2018-03-28T06:04:15.019Z,3.21
2018-03-28T06:05:15.254Z,3.18
2018-03-28T06:06:15.241Z,3.11
2018-03-28T06:07:14.978Z,3.13
2018-03-28T06:08:14.967Z,3.05
2018-03-28T06:09:15.216Z,3.08
2018-03-28T06:10:15.197Z,3.1
2018-03-28T06:11:14.919Z,3.08
2018-03-28T06:12:15.159Z,3.13
2018-03-28T06:13:15.142Z,3.03
2018-03-28T06:14:15.134Z,3.06
2018-03-28T06:15:15.117Z,2.95
2018-03-28T06:16:14.849Z,2.92
2018-03-28T06:17:14.845Z,2.78
2018-03-28T06:18:15.091Z,2.66
2018-03-28T06:19:15.069Z,2.63
2018-03-28T06:20:15.046Z,2.59
2018-03-28T06:21:15.032Z,2.63
2018-03-28T06:22:15.020Z,2.57
2018-03-28T06:23:15.006Z,2.56
2018-03-28T06:24:15.081Z,2.56
2018-03-28T06:25:14.982Z,2.38
2018-03-28T06:26:14.965Z,2.41
2018-03-28T06:27:14.954Z,2.39
2018-03-28T06:28:14.933Z,2.39
2018-03-28T06:29:14.917Z,2.41
2018-03-28T06:30:14.904Z,2.31
2018-03-28T06:31:14.908Z,2.27
2018-03-28T06:32:14.889Z,2.28
2018-03-28T06:33:14.616Z,2.21
2018-03-28T06:34:14.856Z,2.14
2018-03-28T06:35:14.831Z,2.21
2018-03-28T06:36:14.679Z,2.17
2018-03-28T06:37:14.808Z,2.09
2018-03-28T06:38:14.539Z,2.17
2018-03-28T06:39:14.772Z,2.16
2018-03-28T06:40:14.763Z,2.07
2018-03-28T06:41:14.239Z,2.05
2018-03-28T06:42:14.737Z,2.07
2018-03-28T06:43:14.724Z,2.05
2018-03-28T06:44:14.703Z,2.07
2018-03-28T06:45:14.438Z,2.09
2018-03-28T06:46:14.677Z,2.09
2018-03-28T06:47:14.680Z,2.1
2018-03-28T06:48:14.397Z,1.98
2018-03-28T06:49:14.644Z,1.98
2018-03-28T06:50:14.619Z,2
2018-03-28T06:51:14.355Z,1.9
2018-03-28T06:52:14.344Z,1.9
2018-03-28T06:53:14.572Z,1.91
2018-03-28T06:54:14.064Z,1.93
2018-03-28T06:55:14.303Z,1.86
2018-03-28T06:56:14.540Z,1.86
2018-03-28T06:57:14.510Z,1.91
2018-03-28T06:58:14.248Z,1.88
2018-03-28T06:59:14.480Z,1.87
2018-03-28T07:00:13.964Z,1.9
2018-03-28T07:01:14.206Z,1.95
2018-03-28T07:02:14.187Z,1.99
2018-03-28T07:03:14.174Z,1.99
2018-03-28T07:04:14.163Z,2.05
2018-03-28T07:05:14.141Z,2.05
2018-03-28T07:06:14.382Z,1.95
2018-03-28T07:07:14.365Z,1.95
2018-03-28T07:08:14.355Z,2.07
2018-03-28T07:09:14.094Z,2.05
2018-03-28T07:10:14.323Z,2.03
2018-03-28T07:11:14.319Z,2.05
2018-03-28T07:12:14.295Z,2.03
2018-03-28T07:13:14.287Z,2.09
2018-03-28T07:14:14.262Z,2.06
2018-03-28T07:15:13.996Z,2.12
2018-03-28T07:16:14.270Z,2.1
2018-03-28T07:17:14.271Z,2.1
2018-03-28T07:18:14.204Z,2.16
2018-03-28T07:19:14.202Z,2.09
2018-03-28T07:20:14.183Z,2.12
2018-03-28T07:21:14.160Z,2.12
2018-03-28T07:22:14.217Z,2.09
2018-03-28T07:23:13.931Z,2.21
2018-03-28T07:24:14.157Z,2.18
2018-03-28T07:25:13.868Z,2.14
2018-03-28T07:26:13.836Z,2.25
2018-03-28T07:27:14.098Z,2.23
2018-03-28T07:28:14.861Z,2.21
2018-03-28T07:29:14.047Z,2.27
2018-03-28T07:30:14.086Z,2.24
2018-03-28T07:31:14.061Z,2.21
2018-03-28T07:32:13.786Z,2.23
2018-03-28T07:33:14.043Z,2.27
2018-03-28T07:34:14.037Z,2.31
2018-03-28T07:35:13.990Z,2.28
2018-03-28T07:36:13.979Z,2.24
2018-03-28T07:37:13.678Z,2.24
2018-03-28T07:38:14.462Z,2.38
2018-03-28T07:39:13.897Z,2.41
2018-03-28T07:40:13.635Z,2.3
2018-03-28T07:41:13.896Z,2.36
2018-03-28T07:42:13.878Z,2.38
2018-03-28T07:43:13.595Z,2.38
2018-03-28T07:44:13.615Z,2.35
2018-03-28T07:45:13.828Z,2.41
2018-03-28T07:46:13.567Z,2.35
2018-03-28T07:47:13.569Z,2.35
2018-03-28T07:48:13.688Z,2.38
2018-03-28T07:49:13.577Z,2.41
2018-03-28T07:50:13.569Z,2.35
2018-03-28T07:51:13.819Z,2.38
2018-03-28T07:52:13.979Z,2.39
2018-03-28T07:53:13.776Z,2.34
2018-03-28T07:54:13.467Z,2.34
2018-03-28T07:55:13.715Z,2.36
2018-03-28T07:56:13.742Z,2.39
2018-03-28T07:57:13.654Z,2.35
2018-03-28T07:58:13.632Z,2.38
2018-03-28T07:59:13.625Z,2.2
2018-03-28T08:00:13.595Z,2.24
2018-03-28T08:01:13.581Z,2.21
2018-03-28T08:02:13.590Z,2.2
2018-03-28T08:03:13.610Z,2.16
2018-03-28T08:04:13.582Z,2.09
2018-03-28T08:05:13.276Z,2.14
2018-03-28T08:06:13.253Z,2.05
2018-03-28T08:07:13.501Z,2.06
2018-03-28T08:08:13.484Z,1.99
2018-03-28T08:09:13.225Z,1.91
2018-03-28T08:10:13.193Z,1.91
2018-03-28T08:11:13.461Z,1.93
2018-03-28T08:12:13.417Z,1.91
2018-03-28T08:13:12.924Z,1.95
2018-03-28T08:14:13.421Z,1.99
2018-03-28T08:15:13.397Z,1.88
2018-03-28T08:16:13.122Z,2
2018-03-28T08:17:13.103Z,1.99
2018-03-28T08:18:13.343Z,2.02
2018-03-28T08:19:12.870Z,2.07
2018-03-28T08:20:13.071Z,2.03
2018-03-28T08:21:13.315Z,2.14
2018-03-28T08:22:13.021Z,2.05
2018-03-28T08:23:13.286Z,2.05
2018-03-28T08:24:13.261Z,2.16
2018-03-28T08:25:13.250Z,2.21
2018-03-28T08:26:13.232Z,2.23
2018-03-28T08:27:13.201Z,2.12
2018-03-28T08:28:13.194Z,2.16
2018-03-28T08:29:12.948Z,2.12
2018-03-28T08:30:13.187Z,2.12
2018-03-28T08:31:13.158Z,2.14
2018-03-28T08:32:12.892Z,2.18
2018-03-28T08:33:12.876Z,2.16
2018-03-28T08:34:12.857Z,2.21
2018-03-28T08:35:13.079Z,2.25
2018-03-28T08:36:13.069Z,2.12
2018-03-28T08:37:13.060Z,2.23
2018-03-28T08:38:13.059Z,2.25
2018-03-28T08:39:13.073Z,2.23
2018-03-28T08:40:13.035Z,2.2
2018-03-28T08:41:12.748Z,2.34
2018-03-28T08:42:13.016Z,2.35
2018-03-28T08:43:12.980Z,2.38
2018-03-28T08:44:12.953Z,2.36
2018-03-28T08:45:12.966Z,2.42
2018-03-28T08:46:12.415Z,2.35
2018-03-28T08:47:12.920Z,2.41
2018-03-28T08:48:12.918Z,2.39
2018-03-28T08:49:12.625Z,2.43
2018-03-28T08:50:12.864Z,2.45
2018-03-28T08:51:12.857Z,2.57
2018-03-28T08:52:12.961Z,2.49
2018-03-28T08:53:12.569Z,2.63
2018-03-28T08:54:12.822Z,2.56
2018-03-28T08:55:12.806Z,2.57
2018-03-28T08:56:12.807Z,2.56
2018-03-28T08:57:12.779Z,2.59
2018-03-28T08:58:12.747Z,2.6
2018-03-28T08:59:12.750Z,2.61
2018-03-28T09:00:12.972Z,2.71
2018-03-28T09:01:12.704Z,2.75
2018-03-28T09:02:12.711Z,2.85
2018-03-28T09:03:12.690Z,2.82
2018-03-28T09:04:12.671Z,2.85
2018-03-28T09:05:12.643Z,2.87
2018-03-28T09:06:12.381Z,2.89
2018-03-28T09:07:12.629Z,2.96
2018-03-28T09:08:12.613Z,3.13
2018-03-28T09:09:12.593Z,2.99
2018-03-28T09:10:12.594Z,3.06
2018-03-28T09:11:12.318Z,3.1
2018-03-28T09:12:12.550Z,3.1
2018-03-28T09:13:12.531Z,3.05
2018-03-28T09:14:12.525Z,3.1
2018-03-28T09:15:12.533Z,3.14
2018-03-28T09:16:12.241Z,3.05
2018-03-28T09:17:12.229Z,3.08
2018-03-28T09:18:12.488Z,3.03
2018-03-28T09:19:12.217Z,3.02
2018-03-28T09:20:12.434Z,3.02
2018-03-28T09:21:11.918Z,3.11
2018-03-28T09:22:12.412Z,3.13
2018-03-28T09:23:12.419Z,3.05
2018-03-28T09:24:12.137Z,3.14
2018-03-28T09:25:12.122Z,3.1
2018-03-28T09:26:12.108Z,3.14
2018-03-28T09:27:12.111Z,3.2
2018-03-28T09:28:12.358Z,3.21
2018-03-28T09:29:12.071Z,3.18
2018-03-28T09:30:12.067Z,3.2
2018-03-28T09:31:12.291Z,3.24
2018-03-28T09:32:12.269Z,3.26
2018-03-28T09:33:12.258Z,3.2
2018-03-28T09:34:12.004Z,3.1
2018-03-28T09:35:12.228Z,3.13
2018-03-28T09:36:12.249Z,3.13
2018-03-28T09:37:12.202Z,3.08
2018-03-28T09:38:12.212Z,3.05
2018-03-28T09:39:12.199Z,3.05
2018-03-28T09:40:11.935Z,3
2018-03-28T09:41:12.188Z,3.03
2018-03-28T09:42:12.131Z,3.13
2018-03-28T09:43:11.896Z,3.14
2018-03-28T09:44:12.191Z,3.08
2018-03-28T09:45:11.858Z,3.1
2018-03-28T09:46:12.109Z,3.13
2018-03-28T09:47:12.074Z,3.06
2018-03-28T09:48:12.053Z,3.1
2018-03-28T09:49:12.060Z,3.13
2018-03-28T09:50:12.021Z,3.08
2018-03-28T09:51:11.751Z,3
2018-03-28T09:52:12.002Z,2.87
2018-03-28T09:53:11.978Z,2.95
2018-03-28T09:54:11.978Z,2.87
2018-03-28T09:55:11.950Z,2.84
2018-03-28T09:56:12.003Z,2.84
2018-03-28T09:57:11.425Z,2.95
2018-03-28T09:58:11.907Z,2.95
2018-03-28T09:59:11.910Z,2.99
2018-03-28T10:00:11.659Z,2.99
2018-03-28T10:01:11.878Z,3.05
2018-03-28T10:02:11.852Z,3.03
2018-03-28T10:03:11.630Z,3.13
2018-03-28T10:04:11.832Z,3.05
2018-03-28T10:05:11.815Z,3.05
2018-03-28T10:06:11.801Z,3.2
2018-03-28T10:07:11.788Z,3.17
2018-03-28T10:08:12.021Z,3.2
2018-03-28T10:09:11.823Z,3.17
2018-03-28T10:10:11.787Z,3.24
2018-03-28T10:11:11.740Z,3.28
2018-03-28T10:12:11.764Z,3.2
2018-03-28T10:13:11.478Z,3.26
2018-03-28T10:14:11.725Z,3.29
2018-03-28T10:15:11.681Z,3.32
2018-03-28T10:16:11.666Z,3.28
2018-03-28T10:17:11.669Z,3.21
2018-03-28T10:18:11.133Z,3.21
2018-03-28T10:19:11.365Z,3.21
2018-03-28T10:20:11.603Z,3.23
2018-03-28T10:21:11.601Z,3.26
2018-03-28T10:22:11.324Z,3.32
2018-03-28T10:23:11.312Z,3.21
2018-03-28T10:24:11.557Z,3.21
2018-03-28T10:25:11.599Z,3.05
2018-03-28T10:26:11.525Z,3.1
2018-03-28T10:27:11.261Z,3.14
2018-03-28T10:28:11.253Z,3.11
2018-03-28T10:29:11.488Z,3.13
2018-03-28T10:30:11.475Z,3.1
2018-03-28T10:31:11.459Z,3.02
2018-03-28T10:32:11.436Z,2.96
2018-03-28T10:33:11.443Z,2.89
2018-03-28T10:34:11.428Z,2.84
2018-03-28T10:35:11.790Z,2.92
2018-03-28T10:36:11.381Z,2.93
2018-03-28T10:37:11.369Z,3.05
2018-03-28T10:38:11.381Z,2.99
2018-03-28T10:39:11.122Z,2.95
2018-03-28T10:40:11.353Z,2.93
2018-03-28T10:41:11.332Z,2.87
2018-03-28T10:42:11.299Z,2.9
2018-03-28T10:43:11.069Z,2.85
2018-03-28T10:44:11.308Z,2.84
2018-03-28T10:45:11.294Z,2.81
2018-03-28T10:46:11.290Z,2.81
2018-03-28T10:47:11.257Z,2.72
2018-03-28T10:48:11.213Z,2.64
2018-03-28T10:49:10.961Z,2.71
2018-03-28T10:50:10.933Z,2.69
2018-03-28T10:51:11.194Z,2.64
2018-03-28T10:52:10.916Z,2.72
2018-03-28T10:53:11.170Z,2.74
2018-03-28T10:54:10.889Z,2.64
2018-03-28T10:55:10.890Z,2.82
2018-03-28T10:56:11.102Z,2.82
2018-03-28T10:57:11.097Z,2.78
2018-03-28T10:58:10.861Z,2.79
2018-03-28T10:59:10.559Z,2.82
2018-03-28T11:00:10.805Z,2.64
2018-03-28T11:01:11.057Z,2.74
2018-03-28T11:02:11.017Z,2.69
2018-03-28T11:03:11.002Z,2.66
2018-03-28T11:04:10.736Z,2.69
2018-03-28T11:05:10.728Z,2.72
2018-03-28T11:06:10.707Z,2.67
2018-03-28T11:07:10.945Z,2.66
2018-03-28T11:08:10.938Z,2.66
2018-03-28T11:09:10.921Z,2.74
2018-03-28T11:10:10.653Z,2.66
2018-03-28T11:11:10.899Z,2.72
2018-03-28T11:12:10.626Z,2.81
2018-03-28T11:13:10.643Z,2.82
2018-03-28T11:14:10.607Z,2.85
2018-03-28T11:15:10.850Z,2.84
2018-03-28T11:16:10.834Z,2.78
2018-03-28T11:17:10.805Z,2.84
2018-03-28T11:18:10.814Z,2.78
2018-03-28T11:19:10.777Z,2.87
2018-03-28T11:20:10.260Z,2.82
2018-03-28T11:21:10.527Z,2.77
2018-03-28T11:22:10.768Z,2.82
2018-03-28T11:23:10.805Z,2.78
2018-03-28T11:24:10.772Z,2.84
2018-03-28T11:25:10.440Z,2.9
2018-03-28T11:26:10.431Z,2.9
2018-03-28T11:27:10.660Z,2.9
2018-03-28T11:28:10.669Z,2.95
2018-03-28T11:29:10.402Z,2.99
2018-03-28T11:30:10.370Z,3.11
2018-03-28T11:31:10.364Z,3
2018-03-28T11:32:10.603Z,3.03
2018-03-28T11:33:10.326Z,3.17
2018-03-28T11:34:10.316Z,3.18
2018-03-28T11:35:10.311Z,3.11
2018-03-28T11:36:10.300Z,3.13
2018-03-28T11:37:10.544Z,3.14
2018-03-28T11:38:10.289Z,3.08
2018-03-28T11:39:10.504Z,3.24
2018-03-28T11:40:10.257Z,3.23
2018-03-28T11:41:10.239Z,3.24
2018-03-28T11:42:10.457Z,3.26
2018-03-28T11:43:10.186Z,3.2
2018-03-28T11:44:10.176Z,3.24
2018-03-28T11:45:10.198Z,3.32
2018-03-28T11:46:10.177Z,3.29
2018-03-28T11:47:10.395Z,3.32
2018-03-28T11:48:10.397Z,3.32
2018-03-28T11:49:10.119Z,3.32
2018-03-28T11:50:10.366Z,3.31
2018-03-28T11:51:10.359Z,3.24
2018-03-28T11:52:10.080Z,3.29
2018-03-28T11:53:10.526Z,3.29
2018-03-28T11:54:10.403Z,3.23
2018-03-28T11:55:10.323Z,3.26
2018-03-28T11:56:10.281Z,3.31
2018-03-28T11:57:10.010Z,3.26
2018-03-28T11:58:09.996Z,3.24
2018-03-28T11:59:09.972Z,3.2
2018-03-28T12:00:09.964Z,3.23
2018-03-28T12:01:10.204Z,3.26
2018-03-28T12:02:10.224Z,3.24
2018-03-28T12:03:10.202Z,3.2
2018-03-28T12:04:09.924Z,3.08
2018-03-28T12:05:09.897Z,3.06
2018-03-28T12:06:10.152Z,3.06
2018-03-28T12:07:10.118Z,3.05
2018-03-28T12:08:10.104Z,3.26
2018-03-28T12:09:10.155Z,3.17
2018-03-28T12:10:10.164Z,3.2
2018-03-28T12:11:10.060Z,3.28
2018-03-28T12:12:09.800Z,3.23
2018-03-28T12:13:09.783Z,3.26
2018-03-28T12:14:09.771Z,3.23
2018-03-28T12:15:10.007Z,3.28
2018-03-28T12:16:09.488Z,3.23
2018-03-28T12:17:09.985Z,3.31
2018-03-28T12:18:09.977Z,3.36
2018-03-28T12:19:09.951Z,3.36
2018-03-28T12:20:09.693Z,3.28
2018-03-28T12:21:09.695Z,3.28
2018-03-28T12:22:09.937Z,3.21
2018-03-28T12:23:09.920Z,3.24
2018-03-28T12:24:09.912Z,3.23
2018-03-28T12:25:09.719Z,3.29
2018-03-28T12:26:09.886Z,3.26
2018-03-28T12:27:09.884Z,3.28
2018-03-28T12:28:09.606Z,3.24
2018-03-28T12:29:09.570Z,3.29
2018-03-28T12:30:09.553Z,3.26
2018-03-28T12:31:09.820Z,3.21
2018-03-28T12:32:09.826Z,3.31
2018-03-28T12:33:09.777Z,3.2
2018-03-28T12:34:09.529Z,3.26
2018-03-28T12:35:09.778Z,3.2
2018-03-28T12:36:09.503Z,3.24
2018-03-28T12:37:09.533Z,3.18
2018-03-28T12:38:09.987Z,3.26
2018-03-28T12:39:09.503Z,3.28
2018-03-28T12:40:09.433Z,3.29
2018-03-28T12:41:09.417Z,3.32
2018-03-28T12:42:09.770Z,3.29
2018-03-28T12:43:09.656Z,3.21
2018-03-28T12:44:09.679Z,3.24
2018-03-28T12:45:09.626Z,3.24
2018-03-28T12:46:09.352Z,3.23
2018-03-28T12:47:09.599Z,3.18
2018-03-28T12:48:09.635Z,3.32
2018-03-28T12:49:09.300Z,3.23
2018-03-28T12:50:09.611Z,3.36
2018-03-28T12:51:09.298Z,3.4
2018-03-28T12:52:09.603Z,3.28
2018-03-28T12:53:09.551Z,3.45
2018-03-28T12:54:09.859Z,3.29
2018-03-28T12:55:09.544Z,3.21
2018-03-28T12:56:09.499Z,3.28
2018-03-28T12:57:09.479Z,3.33
2018-03-28T12:58:09.452Z,3.4
2018-03-28T12:59:09.180Z,3.48
2018-03-28T13:00:08.915Z,3.47
2018-03-28T13:01:09.202Z,3.45
2018-03-28T13:02:09.166Z,3.35
2018-03-28T13:03:09.400Z,3.4
2018-03-28T13:04:09.095Z,3.36
2018-03-28T13:05:09.345Z,3.43
2018-03-28T13:06:09.073Z,3.35
2018-03-28T13:07:09.330Z,3.43
2018-03-28T13:08:09.478Z,3.45
2018-03-28T13:09:09.292Z,3.39
2018-03-28T13:10:09.354Z,3.33
2018-03-28T13:11:09.459Z,3.31
2018-03-28T13:12:09.309Z,3.29
2018-03-28T13:13:09.227Z,3.43
2018-03-28T13:14:09.246Z,3.39
2018-03-28T13:15:09.230Z,3.48
2018-03-28T13:16:08.942Z,3.39
2018-03-28T13:17:08.666Z,3.45
2018-03-28T13:18:08.669Z,3.39
2018-03-28T13:19:09.178Z,3.43
2018-03-28T13:20:08.899Z,3.4
2018-03-28T13:21:09.122Z,3.47